createdAt,value
2019-03-04T00:00:36.405Z,10.27
2019-03-04T00:02:13.139Z,10.47
2019-03-04T00:03:49.364Z,10.10
2019-03-04T00:05:25.577Z,10.00
2019-03-04T00:07:01.761Z,9.77
2019-03-04T00:08:37.872Z,8.90
2019-03-04T00:10:14.280Z,8.67
2019-03-04T00:11:50.582Z,9.60
2019-03-04T00:13:26.989Z,9.67
2019-03-04T00:15:03.101Z,10.07
2019-03-04T00:16:39.391Z,10.13
2019-03-04T00:18:21.541Z,10.10
2019-03-04T00:19:54.085Z,10.10
2019-03-04T00:21:30.406Z,11.10
2019-03-04T00:23:07.435Z,10.97
2019-03-04T00:24:43.762Z,10.40
2019-03-04T00:26:20.036Z,10.63
2019-03-04T00:27:56.363Z,10.80
2019-03-04T00:29:32.527Z,11.73
2019-03-04T00:31:08.846Z,11.73
2019-03-04T00:32:45.223Z,11.87
2019-03-04T00:34:21.671Z,11.83
2019-03-04T00:35:57.740Z,11.63
2019-03-04T00:37:35.916Z,12.87
2019-03-04T00:39:12.662Z,13.73
2019-03-04T00:40:48.893Z,13.47
2019-03-04T00:42:25.124Z,13.03
2019-03-04T00:44:01.113Z,13.33
2019-03-04T00:45:37.207Z,13.60
2019-03-04T00:47:13.080Z,13.93
2019-03-04T00:48:49.133Z,14.27
2019-03-04T00:50:25.230Z,14.13
2019-03-04T00:52:01.395Z,13.70
2019-03-04T00:53:37.367Z,15.40
2019-03-04T00:55:13.752Z,14.93
2019-03-04T00:56:49.815Z,14.80
2019-03-04T00:58:25.994Z,14.63
2019-03-04T01:00:02.068Z,15.03
2019-03-04T01:01:38.164Z,14.47
2019-03-04T01:03:14.375Z,13.87
2019-03-04T01:04:50.251Z,14.27
2019-03-04T01:06:26.799Z,15.37
2019-03-04T01:08:02.851Z,14.87
2019-03-04T01:09:38.878Z,16.07
2019-03-04T01:11:15.134Z,16.80
2019-03-04T01:12:51.261Z,15.83
2019-03-04T01:14:27.435Z,17.43
2019-03-04T01:16:03.562Z,15.63
2019-03-04T01:17:39.798Z,16.43
2019-03-04T01:19:15.925Z,16.40
2019-03-04T01:20:51.954Z,15.30
2019-03-04T01:22:28.079Z,15.57
2019-03-04T01:24:04.221Z,14.70
2019-03-04T01:25:40.420Z,14.57
2019-03-04T01:27:16.394Z,13.97
2019-03-04T01:28:52.185Z,14.90
2019-03-04T01:30:28.658Z,14.73
2019-03-04T01:32:04.798Z,15.27
2019-03-04T01:33:40.931Z,14.20
2019-03-04T01:35:17.140Z,15.23
2019-03-04T01:36:53.211Z,15.00
2019-03-04T01:38:29.348Z,14.90
2019-03-04T01:40:16.584Z,15.63
2019-03-04T01:41:52.481Z,14.10
2019-03-04T01:43:28.507Z,14.13
2019-03-04T01:45:06.620Z,13.90
2019-03-04T01:46:42.745Z,14.20
2019-03-04T01:48:19.178Z,14.23
2019-03-04T01:49:55.166Z,15.37
2019-03-04T01:51:31.234Z,14.40
2019-03-04T01:53:07.198Z,14.57
2019-03-04T01:54:43.191Z,14.47
2019-03-04T01:56:19.330Z,15.40
2019-03-04T01:58:14.754Z,13.80
2019-03-04T01:59:50.752Z,12.83
2019-03-04T02:01:26.796Z,13.90
2019-03-04T02:03:03.079Z,13.20
2019-03-04T02:04:39.276Z,13.63
2019-03-04T02:06:15.234Z,13.60
2019-03-04T02:07:51.131Z,13.33
2019-03-04T02:09:27.260Z,13.77
2019-03-04T02:11:03.457Z,12.80
2019-03-04T02:12:39.585Z,12.77
2019-03-04T02:14:15.558Z,12.30
2019-03-04T02:15:51.757Z,12.33
2019-03-04T02:17:27.969Z,12.10
2019-03-04T02:19:04.063Z,12.40
2019-03-04T02:20:40.140Z,12.47
2019-03-04T02:22:16.168Z,12.37
2019-03-04T02:23:52.389Z,13.10
2019-03-04T02:25:47.855Z,12.53
2019-03-04T02:27:23.979Z,13.10
2019-03-04T02:29:00.125Z,13.33
2019-03-04T02:30:36.322Z,12.30
2019-03-04T02:32:12.518Z,11.90
2019-03-04T02:33:48.591Z,11.67
2019-03-04T02:35:25.002Z,11.37
2019-03-04T02:37:01.124Z,11.70
2019-03-04T02:38:37.085Z,11.10
2019-03-04T02:40:13.180Z,11.27
2019-03-04T02:41:49.169Z,11.53
2019-03-04T02:43:25.275Z,10.63
2019-03-04T02:45:01.330Z,11.03
2019-03-04T02:46:37.598Z,10.90
2019-03-04T02:48:13.686Z,11.07
2019-03-04T02:49:49.671Z,11.70
2019-03-04T02:51:25.813Z,11.30
2019-03-04T02:53:01.878Z,11.47
2019-03-04T02:54:38.034Z,11.90
2019-03-04T02:56:14.730Z,10.73
2019-03-04T02:57:50.691Z,11.23
2019-03-04T02:59:28.051Z,11.30
2019-03-04T03:01:04.678Z,11.30
2019-03-04T03:02:40.879Z,11.27
2019-03-04T03:04:17.039Z,12.37
2019-03-04T03:05:53.171Z,13.07
2019-03-04T03:07:29.479Z,12.70
2019-03-04T03:09:08.047Z,12.43
2019-03-04T03:10:44.170Z,11.27
2019-03-04T03:12:21.471Z,10.63
2019-03-04T03:13:57.268Z,10.13
2019-03-04T03:15:33.330Z,10.10
2019-03-04T03:17:09.192Z,11.27
2019-03-04T03:18:45.359Z,10.53
2019-03-04T03:20:21.569Z,10.73
2019-03-04T03:21:57.642Z,10.27
2019-03-04T03:23:33.700Z,10.53
2019-03-04T03:25:12.113Z,11.03
2019-03-04T03:26:48.242Z,10.80
2019-03-04T03:28:24.247Z,10.67
2019-03-04T03:30:00.499Z,9.63
2019-03-04T03:31:36.721Z,10.03
2019-03-04T03:33:12.757Z,9.83
2019-03-04T03:34:48.646Z,10.07
2019-03-04T03:36:24.775Z,9.43
2019-03-04T03:38:00.928Z,9.50
2019-03-04T03:39:36.877Z,9.97
2019-03-04T03:41:13.007Z,10.13
2019-03-04T03:42:49.212Z,9.00
2019-03-04T03:44:25.419Z,9.87
2019-03-04T03:46:01.560Z,10.10
2019-03-04T03:47:37.717Z,9.20
2019-03-04T03:49:13.822Z,9.17
2019-03-04T03:50:49.835Z,9.47
2019-03-04T03:52:25.964Z,10.37
2019-03-04T03:54:02.176Z,10.07
2019-03-04T03:55:38.300Z,9.80
2019-03-04T03:57:14.493Z,9.10
2019-03-04T03:58:50.373Z,9.40
2019-03-04T04:00:27.482Z,10.80
2019-03-04T04:02:03.501Z,10.87
2019-03-04T04:03:39.695Z,11.57
2019-03-04T04:05:15.847Z,11.33
2019-03-04T04:06:51.880Z,11.07
2019-03-04T04:08:27.864Z,9.87
2019-03-04T04:10:05.664Z,10.10
2019-03-04T04:11:41.795Z,9.43
2019-03-04T04:13:17.905Z,9.80
2019-03-04T04:14:54.040Z,10.07
2019-03-04T04:16:29.995Z,9.47
2019-03-04T04:18:06.297Z,9.50
2019-03-04T04:19:42.428Z,9.77
2019-03-04T04:21:18.626Z,10.67
2019-03-04T04:22:54.622Z,9.87
2019-03-04T04:24:30.608Z,10.33
2019-03-04T04:26:08.216Z,10.70
2019-03-04T04:27:44.321Z,10.43
2019-03-04T04:29:20.514Z,9.50
2019-03-04T04:30:56.661Z,10.63
2019-03-04T04:32:32.778Z,10.43
2019-03-04T04:34:08.921Z,9.57
2019-03-04T04:35:45.142Z,10.47
2019-03-04T04:37:21.410Z,9.57
2019-03-04T04:38:57.410Z,9.20
2019-03-04T04:40:33.362Z,9.43
2019-03-04T04:42:09.464Z,9.20
2019-03-04T04:43:45.527Z,9.37
2019-03-04T04:45:21.566Z,9.63
2019-03-04T04:46:57.717Z,9.10
2019-03-04T04:48:33.668Z,9.33
2019-03-04T04:50:22.782Z,8.97
2019-03-04T04:51:58.806Z,8.87
2019-03-04T04:53:34.976Z,9.90
2019-03-04T04:55:11.168Z,9.70
2019-03-04T04:56:47.154Z,9.17
2019-03-04T04:58:23.183Z,9.50
2019-03-04T04:59:59.197Z,10.37
2019-03-04T05:01:36.614Z,10.27
2019-03-04T05:03:12.747Z,14.03
2019-03-04T05:04:48.608Z,22.93
2019-03-04T05:06:24.694Z,17.27
2019-03-04T05:08:00.688Z,16.33
2019-03-04T05:09:36.749Z,13.17
2019-03-04T05:11:12.735Z,11.73
2019-03-04T05:12:48.846Z,11.87
2019-03-04T05:14:24.966Z,11.70
2019-03-04T05:16:01.031Z,12.63
2019-03-04T05:17:37.159Z,12.00
2019-03-04T05:19:13.365Z,11.70
2019-03-04T05:20:49.389Z,11.37
2019-03-04T05:22:25.555Z,11.80
2019-03-04T05:24:01.556Z,10.90
2019-03-04T05:25:37.667Z,11.17
2019-03-04T05:27:13.839Z,12.30
2019-03-04T05:28:49.871Z,13.83
2019-03-04T05:30:26.307Z,13.57
2019-03-04T05:32:02.811Z,15.47
2019-03-04T05:33:40.216Z,14.60
2019-03-04T05:35:16.449Z,16.07
2019-03-04T05:36:52.435Z,15.93
2019-03-04T05:38:28.468Z,15.23
2019-03-04T05:40:10.310Z,22.07
2019-03-04T05:41:46.365Z,28.50
2019-03-04T05:43:22.433Z,22.20
2019-03-04T05:44:58.562Z,17.47
2019-03-04T05:46:34.626Z,15.00
2019-03-04T05:48:10.690Z,14.00
2019-03-04T05:49:46.886Z,13.53
2019-03-04T05:51:23.014Z,12.73
2019-03-04T05:53:00.517Z,14.97
2019-03-04T05:54:36.661Z,14.27
2019-03-04T05:56:12.696Z,13.53
2019-03-04T05:57:48.927Z,13.60
2019-03-04T05:59:25.165Z,13.83
2019-03-04T06:01:26.299Z,14.80
2019-03-04T06:03:10.001Z,15.37
2019-03-04T06:04:46.287Z,15.93
2019-03-04T06:06:40.177Z,15.03
2019-03-04T06:08:17.162Z,15.23
2019-03-04T06:09:53.051Z,15.10
2019-03-04T06:11:29.152Z,14.23
2019-03-04T06:13:05.378Z,14.30
2019-03-04T06:14:53.503Z,13.53
2019-03-04T06:16:29.485Z,13.47
2019-03-04T06:18:05.719Z,13.03
2019-03-04T06:19:43.949Z,12.43
2019-03-04T06:21:19.561Z,13.80
2019-03-04T06:22:55.686Z,13.13
2019-03-04T06:24:31.754Z,13.17
2019-03-04T06:26:07.958Z,11.67
2019-03-04T06:27:44.023Z,11.60
2019-03-04T06:29:20.002Z,11.50
2019-03-04T06:30:55.991Z,12.23
2019-03-04T06:32:32.053Z,14.33
2019-03-04T06:34:08.184Z,18.03
2019-03-04T06:35:44.246Z,19.83
2019-03-04T06:37:20.384Z,13.07
2019-03-04T06:38:56.506Z,11.80
2019-03-04T06:40:32.637Z,12.63
2019-03-04T06:42:08.704Z,11.63
2019-03-04T06:43:44.703Z,11.57
2019-03-04T06:45:21.905Z,11.23
2019-03-04T06:46:58.614Z,10.20
2019-03-04T06:48:34.695Z,10.73
2019-03-04T06:50:47.264Z,11.43
2019-03-04T06:52:23.699Z,10.23
2019-03-04T06:54:19.573Z,11.97
2019-03-04T06:56:11.813Z,10.43
2019-03-04T06:57:48.057Z,10.40
2019-03-04T07:00:15.863Z,10.37
2019-03-04T07:02:14.547Z,12.37
2019-03-04T07:03:54.191Z,39.97
2019-03-04T07:05:45.957Z,46.57
2019-03-04T07:07:23.362Z,77.57
2019-03-04T07:09:05.556Z,107.60
2019-03-04T07:10:41.545Z,73.77
2019-03-04T07:12:17.701Z,80.63
2019-03-04T07:13:53.770Z,102.07
2019-03-04T07:15:29.769Z,75.40
2019-03-04T07:17:05.976Z,81.37
2019-03-04T07:18:42.175Z,67.80
2019-03-04T07:20:23.483Z,34.43
2019-03-04T07:21:59.591Z,16.40
2019-03-04T07:23:37.270Z,12.63
2019-03-04T07:25:16.615Z,10.90
2019-03-04T07:26:54.029Z,11.03
2019-03-04T07:28:30.135Z,11.70
2019-03-04T07:30:19.176Z,12.03
2019-03-04T07:31:55.478Z,11.10
2019-03-04T07:33:31.549Z,10.40
2019-03-04T07:35:09.855Z,9.70
2019-03-04T07:36:45.947Z,9.30
2019-03-04T07:38:27.743Z,12.00
2019-03-04T07:40:06.786Z,12.43
2019-03-04T07:41:42.935Z,13.50
2019-03-04T07:43:19.134Z,14.50
2019-03-04T07:44:55.282Z,14.10
2019-03-04T07:46:31.319Z,11.90
2019-03-04T07:48:07.467Z,12.30
2019-03-04T07:49:48.050Z,11.47
2019-03-04T07:51:24.158Z,11.83
2019-03-04T07:53:00.029Z,12.83
2019-03-04T07:54:35.934Z,12.70
2019-03-04T07:56:12.018Z,8.90
2019-03-04T07:57:48.159Z,7.80
2019-03-04T07:59:24.476Z,11.87
2019-03-04T08:01:01.938Z,9.80
2019-03-04T08:02:38.049Z,9.73
2019-03-04T08:04:14.266Z,9.13
2019-03-04T08:05:50.707Z,6.77
2019-03-04T08:07:52.325Z,7.47
2019-03-04T08:10:07.273Z,7.30
2019-03-04T08:12:31.874Z,7.07
2019-03-04T08:14:13.947Z,6.03
2019-03-04T08:15:50.060Z,6.10
2019-03-04T08:17:26.112Z,5.50
2019-03-04T08:19:02.600Z,5.60
2019-03-04T08:20:38.636Z,6.33
2019-03-04T08:22:14.772Z,6.27
2019-03-04T08:23:50.911Z,6.23
2019-03-04T08:25:27.126Z,6.40
2019-03-04T08:27:03.235Z,6.57
2019-03-04T08:28:39.336Z,6.27
2019-03-04T08:30:18.620Z,5.17
2019-03-04T08:31:54.828Z,4.87
2019-03-04T08:33:30.866Z,4.90
2019-03-04T08:35:07.372Z,5.67
2019-03-04T08:36:46.900Z,4.80
2019-03-04T08:38:23.118Z,6.23
2019-03-04T08:39:59.255Z,4.97
2019-03-04T08:41:35.413Z,4.33
2019-03-04T08:43:11.481Z,4.50
2019-03-04T08:44:47.447Z,4.37
2019-03-04T08:46:24.881Z,4.47
2019-03-04T08:48:00.983Z,4.50
2019-03-04T08:49:37.060Z,4.60
2019-03-04T08:51:13.181Z,5.33
2019-03-04T08:52:49.552Z,4.40
2019-03-04T08:54:25.712Z,4.50
2019-03-04T08:56:01.775Z,5.47
2019-03-04T08:57:37.810Z,4.30
2019-03-04T08:59:14.688Z,4.93
2019-03-04T09:00:51.246Z,4.30
2019-03-04T09:02:27.430Z,4.40
2019-03-04T09:04:03.565Z,3.97
2019-03-04T09:05:39.775Z,5.10
2019-03-04T09:07:17.292Z,4.80
2019-03-04T09:08:53.426Z,4.40
2019-03-04T09:10:37.774Z,4.30
2019-03-04T09:12:13.812Z,4.03
2019-03-04T09:13:49.893Z,4.23
2019-03-04T09:15:26.304Z,4.43
2019-03-04T09:17:02.604Z,4.10
2019-03-04T09:18:38.616Z,4.00
2019-03-04T09:20:17.396Z,4.07
2019-03-04T09:21:53.522Z,5.10
2019-03-04T09:23:29.900Z,4.50
2019-03-04T09:25:19.638Z,4.40
2019-03-04T09:26:55.551Z,4.67
2019-03-04T09:28:31.600Z,4.30
2019-03-04T09:30:14.358Z,4.33
2019-03-04T09:31:51.798Z,4.50
2019-03-04T09:33:27.934Z,4.60
2019-03-04T09:35:05.012Z,4.60
2019-03-04T09:36:42.647Z,3.93
2019-03-04T09:38:18.897Z,4.40
2019-03-04T09:39:57.823Z,5.03
2019-03-04T09:41:34.092Z,4.73
2019-03-04T09:43:15.205Z,4.93
2019-03-04T09:44:51.340Z,5.20
2019-03-04T09:46:27.682Z,5.50
2019-03-04T09:48:03.883Z,4.93
2019-03-04T09:49:40.429Z,4.27
2019-03-04T09:51:24.043Z,3.83
2019-03-04T09:52:54.485Z,4.63
2019-03-04T09:54:30.645Z,5.13
2019-03-04T09:56:06.863Z,4.90
2019-03-04T09:57:43.063Z,4.93
2019-03-04T09:59:19.104Z,5.63
2019-03-04T10:01:11.390Z,5.90
2019-03-04T10:02:47.489Z,5.87
2019-03-04T10:04:48.496Z,5.50
2019-03-04T10:06:49.786Z,6.40
2019-03-04T10:08:33.031Z,5.97
2019-03-04T10:10:32.343Z,6.40
2019-03-04T10:12:24.871Z,6.20
2019-03-04T10:14:13.797Z,6.27
2019-03-04T10:16:03.809Z,6.70
2019-03-04T10:18:09.518Z,6.60
2019-03-04T10:20:14.211Z,5.73
2019-03-04T10:22:23.341Z,6.47
2019-03-04T10:24:30.807Z,6.30
2019-03-04T10:26:22.253Z,7.00
2019-03-04T10:28:17.217Z,5.67
2019-03-04T10:30:06.464Z,5.73
2019-03-04T10:31:52.887Z,5.80
2019-03-04T10:34:00.565Z,6.13
2019-03-04T10:35:43.720Z,6.47
2019-03-04T10:37:50.682Z,5.90
2019-03-04T10:39:33.804Z,6.07
2019-03-04T10:41:23.215Z,6.03
2019-03-04T10:43:31.095Z,6.20
2019-03-04T10:45:32.935Z,6.37
2019-03-04T10:47:09.074Z,6.80
2019-03-04T10:48:45.201Z,6.00
2019-03-04T10:50:21.493Z,6.67
2019-03-04T10:51:57.622Z,6.60
2019-03-04T10:53:33.779Z,6.77
2019-03-04T10:55:13.360Z,7.10
2019-03-04T10:56:49.572Z,6.87
2019-03-04T10:58:25.925Z,7.10
2019-03-04T11:00:01.902Z,6.10
2019-03-04T11:01:38.058Z,5.70
2019-03-04T11:03:14.028Z,5.97
2019-03-04T11:04:49.834Z,6.53
2019-03-04T11:06:27.515Z,6.00
2019-03-04T11:08:03.649Z,5.60
2019-03-04T11:09:39.655Z,9.10
2019-03-04T11:11:15.757Z,5.80
2019-03-04T11:12:52.027Z,5.83
2019-03-04T11:14:28.094Z,10.07
2019-03-04T11:16:04.201Z,5.70
2019-03-04T11:17:40.403Z,5.90
2019-03-04T11:19:16.479Z,5.27
2019-03-04T11:20:53.465Z,5.50
2019-03-04T11:22:29.749Z,5.30
2019-03-04T11:24:08.517Z,6.10
2019-03-04T11:25:44.648Z,5.63
2019-03-04T11:27:20.922Z,5.37
2019-03-04T11:28:57.170Z,5.03
2019-03-04T11:30:33.643Z,4.80
2019-03-04T11:32:09.853Z,5.47
2019-03-04T11:33:46.054Z,5.27
2019-03-04T11:35:22.094Z,5.37
2019-03-04T11:36:58.167Z,5.50
2019-03-04T11:38:43.302Z,6.17
2019-03-04T11:40:39.037Z,6.40
2019-03-04T11:42:15.152Z,4.70
2019-03-04T11:43:51.908Z,5.67
2019-03-04T11:45:28.179Z,5.20
2019-03-04T11:47:04.316Z,4.77
2019-03-04T11:48:40.532Z,4.87
2019-03-04T11:50:17.766Z,4.23
2019-03-04T11:51:53.921Z,4.87
2019-03-04T11:53:30.157Z,5.97
2019-03-04T11:55:16.597Z,5.03
2019-03-04T11:56:52.580Z,5.93
2019-03-04T11:58:28.802Z,5.17
2019-03-04T12:00:37.289Z,4.70
2019-03-04T12:02:15.090Z,5.07
2019-03-04T12:03:51.232Z,4.53
2019-03-04T12:05:27.351Z,4.07
2019-03-04T12:07:04.737Z,4.80
2019-03-04T12:08:40.862Z,4.67
2019-03-04T12:10:18.221Z,4.30
2019-03-04T12:11:54.368Z,4.03
2019-03-04T12:13:30.438Z,4.23
2019-03-04T12:15:13.709Z,4.33
2019-03-04T12:16:49.914Z,4.73
2019-03-04T12:18:26.133Z,4.27
2019-03-04T12:20:02.346Z,4.23
2019-03-04T12:21:38.485Z,4.30
2019-03-04T12:23:14.674Z,4.40
2019-03-04T12:24:50.764Z,4.63
2019-03-04T12:26:26.979Z,3.63
2019-03-04T12:28:03.215Z,3.10
2019-03-04T12:29:39.399Z,3.40
2019-03-04T12:31:15.539Z,3.50
2019-03-04T12:32:53.446Z,3.10
2019-03-04T12:34:29.604Z,2.90
2019-03-04T12:36:06.011Z,3.00
2019-03-04T12:37:42.197Z,4.33
2019-03-04T12:39:18.182Z,3.97
2019-03-04T12:40:54.143Z,4.50
2019-03-04T12:42:30.132Z,3.40
2019-03-04T12:44:06.071Z,3.50
2019-03-04T12:45:42.281Z,3.67
2019-03-04T12:47:19.705Z,3.57
2019-03-04T12:48:55.615Z,3.77
2019-03-04T12:50:36.407Z,3.83
2019-03-04T12:52:12.446Z,3.83
2019-03-04T12:53:48.456Z,3.20
2019-03-04T12:55:24.477Z,3.23
2019-03-04T12:57:00.596Z,3.50
2019-03-04T12:58:36.646Z,3.20
2019-03-04T13:00:19.899Z,3.63
2019-03-04T13:01:56.028Z,3.00
2019-03-04T13:03:32.325Z,3.57
2019-03-04T13:05:12.220Z,5.50
2019-03-04T13:06:48.260Z,3.87
2019-03-04T13:08:24.476Z,3.53
2019-03-04T13:10:00.531Z,3.90
2019-03-04T13:11:36.659Z,3.80
2019-03-04T13:13:12.882Z,3.23
2019-03-04T13:14:48.937Z,3.40
2019-03-04T13:16:25.147Z,3.30
2019-03-04T13:18:01.374Z,3.80
2019-03-04T13:19:37.540Z,4.00
2019-03-04T13:21:13.747Z,3.77
2019-03-04T13:22:50.055Z,4.07
2019-03-04T13:24:26.124Z,3.83
2019-03-04T13:26:02.315Z,3.53
2019-03-04T13:27:38.620Z,4.40
2019-03-04T13:29:14.931Z,4.27
2019-03-04T13:30:51.080Z,4.40
2019-03-04T13:32:27.131Z,3.87
2019-03-04T13:34:03.969Z,4.73
2019-03-04T13:35:44.856Z,6.20
2019-03-04T13:37:21.093Z,3.93
2019-03-04T13:38:57.243Z,4.93
2019-03-04T13:40:33.912Z,6.03
2019-03-04T13:42:11.503Z,5.13
2019-03-04T13:43:47.612Z,4.47
2019-03-04T13:45:24.409Z,4.80
2019-03-04T13:47:00.551Z,4.60
2019-03-04T13:48:36.607Z,3.80
2019-03-04T13:50:22.715Z,4.43
2019-03-04T13:51:58.855Z,4.20
2019-03-04T13:53:35.003Z,4.20
2019-03-04T13:55:11.604Z,4.20
2019-03-04T13:56:47.750Z,4.30
2019-03-04T13:58:23.859Z,4.80
2019-03-04T13:59:59.961Z,4.23
2019-03-04T14:01:36.093Z,4.20
2019-03-04T14:03:14.909Z,4.00
2019-03-04T14:04:50.883Z,4.10
2019-03-04T14:06:27.020Z,4.20
2019-03-04T14:08:03.262Z,4.17
2019-03-04T14:09:39.237Z,4.20
2019-03-04T14:11:17.117Z,4.00
2019-03-04T14:12:53.223Z,4.57
2019-03-04T14:14:29.380Z,4.83
2019-03-04T14:16:06.810Z,4.73
2019-03-04T14:17:43.024Z,5.07
2019-03-04T14:19:19.171Z,5.17
2019-03-04T14:20:55.296Z,4.90
2019-03-04T14:22:40.122Z,6.03
2019-03-04T14:24:09.155Z,4.90
2019-03-04T14:25:45.348Z,5.30
2019-03-04T14:27:21.482Z,5.10
2019-03-04T14:28:57.550Z,4.93
2019-03-04T14:30:33.850Z,5.60
2019-03-04T14:32:10.071Z,6.53
2019-03-04T14:33:46.140Z,6.27
2019-03-04T14:35:22.266Z,4.37
2019-03-04T14:36:58.486Z,4.03
2019-03-04T14:38:34.622Z,5.10
2019-03-04T14:40:19.466Z,4.67
2019-03-04T14:41:55.611Z,5.33
2019-03-04T14:43:31.744Z,5.53
2019-03-04T14:45:20.758Z,7.67
2019-03-04T14:46:56.819Z,8.00
2019-03-04T14:48:33.030Z,6.10
2019-03-04T14:50:18.253Z,5.50
2019-03-04T14:51:54.418Z,6.37
2019-03-04T14:53:30.543Z,6.20
2019-03-04T14:55:11.246Z,6.50
2019-03-04T14:56:47.530Z,6.13
2019-03-04T14:58:23.831Z,5.30
2019-03-04T14:59:59.900Z,5.30
2019-03-04T15:01:39.154Z,7.00
2019-03-04T15:03:20.964Z,9.80
2019-03-04T15:04:52.960Z,9.00
2019-03-04T15:06:29.103Z,7.03
2019-03-04T15:08:07.991Z,5.93
2019-03-04T15:09:49.241Z,8.73
2019-03-04T15:11:21.993Z,9.83
2019-03-04T15:12:58.243Z,7.47
2019-03-04T15:14:34.304Z,6.93
2019-03-04T15:16:10.509Z,5.40
2019-03-04T15:17:46.850Z,6.93
2019-03-04T15:19:22.813Z,9.07
2019-03-04T15:20:59.059Z,11.30
2019-03-04T15:22:35.483Z,42.70
2019-03-04T15:24:11.856Z,20.53
2019-03-04T15:25:48.063Z,20.50
2019-03-04T15:27:24.472Z,27.40
2019-03-04T15:29:00.625Z,21.83
2019-03-04T15:30:37.042Z,15.77
2019-03-04T15:32:13.266Z,10.37
2019-03-04T15:33:50.765Z,20.07
2019-03-04T15:35:26.838Z,10.77
2019-03-04T15:37:03.057Z,10.33
2019-03-04T15:38:39.131Z,10.40
2019-03-04T15:40:16.176Z,8.73
2019-03-04T15:41:52.401Z,8.10
2019-03-04T15:43:28.569Z,7.73
2019-03-04T15:45:05.339Z,7.87
2019-03-04T15:46:41.555Z,7.90
2019-03-04T15:48:19.459Z,7.40
2019-03-04T15:49:55.431Z,8.27
2019-03-04T15:51:31.573Z,7.60
2019-03-04T15:53:07.775Z,9.70
2019-03-04T15:54:43.951Z,8.20
2019-03-04T15:56:20.454Z,7.30
2019-03-04T15:57:56.447Z,6.50
2019-03-04T15:59:32.489Z,8.00
2019-03-04T16:01:11.656Z,9.63
2019-03-04T16:02:48.905Z,10.90
2019-03-04T16:04:24.979Z,10.43
2019-03-04T16:06:01.198Z,10.80
2019-03-04T16:07:37.413Z,12.80
2019-03-04T16:09:17.539Z,9.13
2019-03-04T16:10:53.646Z,9.50
2019-03-04T16:12:30.047Z,8.13
2019-03-04T16:14:06.248Z,11.17
2019-03-04T16:15:47.576Z,11.70
2019-03-04T16:17:23.819Z,8.77
2019-03-04T16:19:00.041Z,10.47
2019-03-04T16:20:36.294Z,9.70
2019-03-04T16:22:12.505Z,8.70
2019-03-04T16:23:50.089Z,11.27
2019-03-04T16:25:26.727Z,10.33
2019-03-04T16:27:09.492Z,9.97
2019-03-04T16:28:45.721Z,8.10
2019-03-04T16:30:25.753Z,8.90
2019-03-04T16:32:01.976Z,9.20
2019-03-04T16:33:39.540Z,11.60
2019-03-04T16:35:15.980Z,15.23
2019-03-04T16:36:52.119Z,15.67
2019-03-04T16:38:28.273Z,15.77
2019-03-04T16:40:06.827Z,15.27
2019-03-04T16:41:43.989Z,14.40
2019-03-04T16:43:20.151Z,11.53
2019-03-04T16:44:56.325Z,11.20
2019-03-04T16:46:32.355Z,8.70
2019-03-04T16:48:08.565Z,10.70
2019-03-04T16:49:45.649Z,10.33
2019-03-04T16:51:21.943Z,13.20
2019-03-04T16:53:10.656Z,20.63
2019-03-04T16:54:46.630Z,17.90
2019-03-04T16:56:22.840Z,33.57
2019-03-04T16:57:59.061Z,66.83
2019-03-04T16:59:35.236Z,58.17
2019-03-04T17:01:11.279Z,55.97
2019-03-04T17:02:47.413Z,25.83
2019-03-04T17:04:24.545Z,18.70
2019-03-04T17:06:00.783Z,39.13
2019-03-04T17:07:36.901Z,37.10
2019-03-04T17:09:18.652Z,33.00
2019-03-04T17:10:56.086Z,29.63
2019-03-04T17:12:32.257Z,19.67
2019-03-04T17:14:08.287Z,19.30
2019-03-04T17:15:44.442Z,15.33
2019-03-04T17:17:20.559Z,27.60
2019-03-04T17:18:56.723Z,31.80
2019-03-04T17:20:32.827Z,22.37
2019-03-04T17:22:08.968Z,24.40
2019-03-04T17:23:45.177Z,31.63
2019-03-04T17:25:24.456Z,20.03
2019-03-04T17:27:00.598Z,21.03
2019-03-04T17:28:36.637Z,20.70
2019-03-04T17:30:21.605Z,24.90
2019-03-04T17:31:57.652Z,24.77
2019-03-04T17:33:33.861Z,37.60
2019-03-04T17:35:13.405Z,96.43
2019-03-04T17:36:49.452Z,61.13
2019-03-04T17:38:25.432Z,32.20
2019-03-04T17:40:01.500Z,15.00
2019-03-04T17:41:37.724Z,22.77
2019-03-04T17:43:13.987Z,22.80
2019-03-04T17:44:50.142Z,21.67
2019-03-04T17:46:26.262Z,26.70
2019-03-04T17:48:03.962Z,32.23
2019-03-04T17:49:39.994Z,33.20
2019-03-04T17:51:16.168Z,41.33
2019-03-04T17:52:51.965Z,41.83
2019-03-04T17:54:28.008Z,39.10
2019-03-04T17:56:04.239Z,37.77
2019-03-04T17:57:40.778Z,31.90
2019-03-04T17:59:16.652Z,24.67
2019-03-04T18:00:55.463Z,20.50
2019-03-04T18:02:31.509Z,21.43
2019-03-04T18:04:07.704Z,17.77
2019-03-04T18:05:43.909Z,17.83
2019-03-04T18:07:20.168Z,20.43
2019-03-04T18:08:56.317Z,15.57
2019-03-04T18:10:32.569Z,22.10
2019-03-04T18:12:08.778Z,25.03
2019-03-04T18:13:44.840Z,27.47
2019-03-04T18:15:35.983Z,21.10
2019-03-04T18:17:12.130Z,32.97
2019-03-04T18:18:48.372Z,25.97
2019-03-04T18:20:34.126Z,19.83
2019-03-04T18:22:02.501Z,23.60
2019-03-04T18:23:41.376Z,20.50
2019-03-04T18:25:49.242Z,23.50
2019-03-04T18:27:25.455Z,23.20
2019-03-04T18:29:11.970Z,19.23
2019-03-04T18:31:04.585Z,15.83
2019-03-04T18:32:48.219Z,15.43
2019-03-04T18:34:43.618Z,18.63
2019-03-04T18:36:48.363Z,17.10
2019-03-04T18:38:48.406Z,16.77
2019-03-04T18:40:45.339Z,16.63
2019-03-04T18:42:40.576Z,17.57
2019-03-04T18:44:57.587Z,15.93
2019-03-04T18:46:52.719Z,15.87
2019-03-04T18:48:56.868Z,18.33
2019-03-04T18:50:32.911Z,17.47
2019-03-04T18:52:09.055Z,15.03
2019-03-04T18:53:45.166Z,13.53
2019-03-04T18:55:21.375Z,16.50
2019-03-04T18:56:57.586Z,11.30
2019-03-04T18:58:33.589Z,9.33
2019-03-04T19:00:25.933Z,10.47
2019-03-04T19:02:02.126Z,10.37
2019-03-04T19:03:38.333Z,9.57
2019-03-04T19:05:14.375Z,9.13
2019-03-04T19:06:50.695Z,9.80
2019-03-04T19:08:26.746Z,9.37
2019-03-04T19:10:02.798Z,13.00
2019-03-04T19:11:39.197Z,10.23
2019-03-04T19:13:15.810Z,8.80
2019-03-04T19:14:51.851Z,8.83
2019-03-04T19:16:27.891Z,9.27
2019-03-04T19:18:03.868Z,7.43
2019-03-04T19:19:39.951Z,7.73
2019-03-04T19:21:16.023Z,12.83
2019-03-04T19:22:52.063Z,11.73
2019-03-04T19:24:28.132Z,8.43
2019-03-04T19:26:04.370Z,8.57
2019-03-04T19:27:40.543Z,8.60
2019-03-04T19:29:16.550Z,7.63
2019-03-04T19:30:52.817Z,8.00
2019-03-04T19:32:28.857Z,5.33
2019-03-04T19:34:05.061Z,4.60
2019-03-04T19:35:41.213Z,3.53
2019-03-04T19:37:17.371Z,3.70
2019-03-04T19:38:53.505Z,5.50
2019-03-04T19:40:29.718Z,8.47
2019-03-04T19:42:05.916Z,5.47
2019-03-04T19:43:42.079Z,5.97
2019-03-04T19:45:22.568Z,3.03
2019-03-04T19:46:58.504Z,3.57
2019-03-04T19:48:35.094Z,3.43
2019-03-04T19:50:12.772Z,4.30
2019-03-04T19:51:48.887Z,3.57
2019-03-04T19:53:24.832Z,3.97
2019-03-04T19:55:01.041Z,3.30
2019-03-04T19:56:37.143Z,3.13
2019-03-04T19:58:13.366Z,3.47
2019-03-04T19:59:49.568Z,3.00
2019-03-04T20:01:25.807Z,3.60
2019-03-04T20:03:02.022Z,4.40
2019-03-04T20:04:38.240Z,3.50
2019-03-04T20:06:14.471Z,2.67
2019-03-04T20:07:50.411Z,3.03
2019-03-04T20:09:26.749Z,2.70
2019-03-04T20:11:02.949Z,4.17
2019-03-04T20:12:39.166Z,3.37
2019-03-04T20:14:15.338Z,2.70
2019-03-04T20:15:52.923Z,4.80
2019-03-04T20:17:29.324Z,4.80
2019-03-04T20:19:05.626Z,3.03
2019-03-04T20:20:42.935Z,3.10
2019-03-04T20:22:19.115Z,3.63
2019-03-04T20:23:55.338Z,3.27
2019-03-04T20:25:31.744Z,4.07
2019-03-04T20:27:07.845Z,5.23
2019-03-04T20:28:44.083Z,5.43
2019-03-04T20:30:22.178Z,4.27
2019-03-04T20:31:59.838Z,3.17
2019-03-04T20:33:37.367Z,3.33
2019-03-04T20:35:17.610Z,3.43
2019-03-04T20:36:53.628Z,3.23
2019-03-04T20:38:40.518Z,4.03
2019-03-04T20:40:16.844Z,3.93
2019-03-04T20:41:52.983Z,3.60
2019-03-04T20:43:29.180Z,2.80
2019-03-04T20:45:08.787Z,3.30
2019-03-04T20:46:44.808Z,2.40
2019-03-04T20:48:21.119Z,3.10
2019-03-04T20:49:57.169Z,4.30
2019-03-04T20:51:33.317Z,4.53
2019-03-04T20:53:09.587Z,4.83
2019-03-04T20:54:45.586Z,5.30
2019-03-04T20:56:21.720Z,6.40
2019-03-04T20:57:57.942Z,6.13
2019-03-04T20:59:34.053Z,5.97
2019-03-04T21:01:10.440Z,6.07
2019-03-04T21:02:47.168Z,5.83
2019-03-04T21:04:23.274Z,4.23
2019-03-04T21:05:59.481Z,4.10
2019-03-04T21:07:35.682Z,4.03
2019-03-04T21:09:13.380Z,4.30
2019-03-04T21:10:51.082Z,3.70
2019-03-04T21:12:27.593Z,4.40
2019-03-04T21:14:03.779Z,2.83
2019-03-04T21:15:40.097Z,3.50
2019-03-04T21:17:17.022Z,3.40
2019-03-04T21:18:53.247Z,3.27
2019-03-04T21:20:29.458Z,4.40
2019-03-04T21:22:05.733Z,5.10
2019-03-04T21:23:42.024Z,5.63
2019-03-04T21:26:04.087Z,4.07
2019-03-04T21:27:40.378Z,4.57